Time;durP1;ratioP1;P1;durP2;ratioP2;P2;SDS_P1;SDS_P2;PMS_P1;PMS_P2;Temp;Humidity;BMP_temperature;BMP_pressure;BME280_temperature;BME280_humidity;BME280_pressure;Samples;Min_cycle;Max_cycle;Signal;HPM_P1;HPM_P2
2023/11/28 00:02:50;;;;;;;7.28;4.67;;;;;;;6.17;42.06;99308.28;1678234;85;21885;-81
2023/11/28 00:05:57;;;;;;;8.48;4.40;;;;;;;6.21;41.98;99310.12;1682165;85;21670;-82
2023/11/28 00:09:04;;;;;;;7.15;4.42;;;;;;;6.05;42.17;99316.43;1681926;85;21845;-81
2023/11/28 00:12:10;;;;;;;9.45;3.95;;;;;;;5.78;42.57;99327.09;1681564;85;21363;-82
2023/11/28 00:15:17;;;;;;;6.20;4.30;;;;;;;5.63;42.90;99329.13;1682250;85;21319;-80
2023/11/28 00:18:23;;;;;;;6.05;4.08;;;;;;;5.76;42.72;99325.91;1680871;85;21324;-82
2023/11/28 00:21:30;;;;;;;8.05;3.80;;;;;;;5.51;43.00;99326.92;1680724;85;21304;-80
2023/11/28 00:24:35;;;;;;;7.28;4.30;;;;;;;5.49;42.99;99325.72;1680700;84;21375;-82
2023/11/28 00:27:41;;;;;;;6.30;3.25;;;;;;;5.61;42.88;99331.68;1680688;84;21300;-81
2023/11/28 00:30:48;;;;;;;6.97;3.58;;;;;;;5.33;43.23;99335.20;1681232;85;21339;-82
2023/11/28 00:33:55;;;;;;;5.80;3.37;;;;;;;5.44;43.00;99342.16;1680711;85;21299;-82
2023/11/28 00:37:00;;;;;;;6.15;3.72;;;;;;;5.62;42.55;99348.29;1680817;84;21324;-82
2023/11/28 00:40:08;;;;;;;5.12;3.65;;;;;;;5.51;42.65;99348.12;1681797;85;21328;-81
2023/11/28 00:43:15;;;;;;;6.75;4.20;;;;;;;5.17;43.53;99349.55;1680931;85;21368;-80
2023/11/28 00:46:22;;;;;;;5.97;3.85;;;;;;;5.21;43.46;99345.49;1681957;85;21861;-83
2023/11/28 00:49:29;;;;;;;6.85;3.65;;;;;;;5.27;43.14;99346.20;1682054;85;21325;-81
2023/11/28 00:52:35;;;;;;;5.70;3.77;;;;;;;5.45;42.86;99354.70;1681534;85;21383;-80
2023/11/28 00:55:41;;;;;;;6.53;3.70;;;;;;;5.33;42.98;99355.03;1704175;83;21300;-80
2023/11/28 00:58:48;;;;;;;8.03;4.20;;;;;;;5.43;42.82;99370.30;1733545;83;21312;-81
2023/11/28 01:01:53;;;;;;;6.08;3.77;;;;;;;5.03;43.44;99365.92;1732686;81;21279;-82
2023/11/28 01:05:00;;;;;;;7.95;4.30;;;;;;;4.99;43.61;99370.52;1733449;83;21324;-82
2023/11/28 01:08:05;;;;;;;8.68;3.67;;;;;;;4.81;43.90;99374.16;1732603;81;21303;-81
2023/11/28 01:11:11;;;;;;;5.47;3.85;;;;;;;4.82;43.87;99375.84;1732464;83;21304;-80
2023/11/28 01:14:18;;;;;;;6.08;3.47;;;;;;;4.85;43.70;99382.31;1732283;83;21279;-81
2023/11/28 01:17:24;;;;;;;7.28;4.20;;;;;;;5.01;43.42;99387.45;1732933;81;21849;-82
2023/11/28 01:20:31;;;;;;;6.65;3.75;;;;;;;4.96;43.51;99391.16;1733449;83;21280;-81
2023/11/28 01:23:36;;;;;;;7.53;4.15;;;;;;;5.04;43.49;99393.91;1732326;81;21312;-82
2023/11/28 01:26:41;;;;;;;7.25;3.85;;;;;;;4.99;43.48;99399.82;1732709;81;21848;-82
2023/11/28 01:29:47;;;;;;;7.17;4.40;;;;;;;5.02;43.60;99399.98;1690602;84;21311;-80
2023/11/28 01:32:53;;;;;;;5.58;4.22;;;;;;;4.98;43.75;99395.89;1690506;83;21244;-82
2023/11/28 01:36:00;;;;;;;5.78;3.98;;;;;;;5.07;43.59;99398.98;1691893;85;21331;-80
2023/11/28 01:39:07;;;;;;;6.40;3.75;;;;;;;5.02;43.65;99398.12;1691822;85;21177;-79
2023/11/28 01:42:14;;;;;;;5.65;3.83;;;;;;;5.06;43.50;99410.34;1690553;83;21212;-79
2023/11/28 01:45:22;;;;;;;8.40;4.92;;;;;;;5.11;43.52;99405.78;1692040;85;21204;-80
2023/11/28 01:48:28;;;;;;;7.83;4.70;;;;;;;5.03;43.57;99413.87;1692042;83;21306;-80
2023/11/28 01:51:34;;;;;;;7.00;5.08;;;;;;;5.12;43.41;99414.25;1690600;83;21868;-81
2023/11/28 01:54:41;;;;;;;7.83;4.60;;;;;;;5.08;43.50;99419.66;1691803;85;21823;-79
2023/11/28 01:57:46;;;;;;;8.08;4.60;;;;;;;4.90;43.71;99420.27;1690921;83;21299;-80
2023/11/28 02:00:53;;;;;;;9.00;4.60;;;;;;;5.19;43.18;99411.25;1691827;85;21840;-80
2023/11/28 02:04:00;;;;;;;6.67;4.58;;;;;;;5.05;43.27;99413.22;1691727;85;21434;-79
2023/11/28 02:07:06;;;;;;;5.72;4.03;;;;;;;4.99;43.35;99423.36;1690638;83;21354;-81
2023/11/28 02:10:13;;;;;;;7.05;4.30;;;;;;;5.03;43.22;99423.36;1690288;85;21860;-80
2023/11/28 02:13:20;;;;;;;8.00;4.67;;;;;;;5.26;42.56;99425.83;1690823;83;21220;-81
2023/11/28 02:16:26;;;;;;;9.95;5.50;;;;;;;5.63;42.17;99421.87;1691860;83;21188;-80
2023/11/28 02:19:31;;;;;;;13.03;7.37;;;;;;;5.55;42.04;99421.84;1691723;85;21316;-81
2023/11/28 02:22:37;;;;;;;17.30;8.05;;;;;;;5.78;41.62;99428.85;1691031;83;21319;-81
2023/11/28 02:25:58;;;;;;;9.33;6.28;;;;;;;5.41;41.82;99430.63;1691559;85;21851;-80
2023/11/28 02:29:03;;;;;;;8.18;5.40;;;;;;;5.80;41.55;99430.91;1705408;83;21327;-81
2023/11/28 02:32:09;;;;;;;10.38;5.17;;;;;;;5.19;42.13;99441.58;1713645;84;21846;-82
2023/11/28 02:35:16;;;;;;;6.45;4.03;;;;;;;5.67;41.45;99454.95;1763074;81;21299;-81
2023/11/28 02:38:21;;;;;;;11.20;4.75;;;;;;;5.07;41.83;99452.69;1761864;80;21337;-81
2023/11/28 02:41:27;;;;;;;6.95;4.20;;;;;;;4.83;41.99;99465.60;1762970;80;21903;-80
2023/11/28 02:44:33;;;;;;;11.03;4.45;;;;;;;4.66;41.98;99462.47;1762914;81;21292;-81
2023/11/28 02:47:39;;;;;;;6.45;4.17;;;;;;;4.56;42.16;99468.46;1762256;80;21306;-81
2023/11/28 02:50:45;;;;;;;6.95;4.35;;;;;;;4.45;42.37;99474.14;1763085;81;21279;-81
2023/11/28 02:53:51;;;;;;;7.30;3.98;;;;;;;4.25;42.63;99476.19;1761695;81;21278;-81
2023/11/28 02:56:57;;;;;;;6.65;4.30;;;;;;;4.27;42.73;99482.28;1762485;80;21855;-82
2023/11/28 03:00:08;;;;;;;7.15;4.37;;;;;;;4.14;43.05;99487.23;1763093;81;21310;-82
2023/11/28 03:03:13;;;;;;;5.42;3.85;;;;;;;4.13;43.38;99494.52;1762022;80;21365;-81
2023/11/28 03:06:20;;;;;;;9.23;4.58;;;;;;;4.15;43.26;99487.11;1763068;80;21287;-80
2023/11/28 03:09:26;;;;;;;7.87;3.98;;;;;;;4.17;43.20;99490.49;1762980;81;21275;-81
2023/11/28 03:12:32;;;;;;;5.17;3.58;;;;;;;3.96;43.23;99485.41;1761424;80;21824;-81
2023/11/28 03:15:38;;;;;;;8.45;4.03;;;;;;;4.17;43.08;99495.91;1761729;81;21255;-80
2023/11/28 03:18:45;;;;;;;6.70;4.00;;;;;;;4.21;42.98;99501.36;1762838;81;21279;-80
2023/11/28 03:21:51;;;;;;;8.70;4.40;;;;;;;4.35;43.04;99501.31;1761412;80;21286;-82
2023/11/28 03:24:58;;;;;;;5.78;3.90;;;;;;;4.16;43.57;99517.72;1762891;81;21819;-83
2023/11/28 03:28:04;;;;;;;8.23;4.10;;;;;;;4.26;43.61;99523.40;1762180;80;21831;-79
2023/11/28 03:31:11;;;;;;;8.35;3.90;;;;;;;5.09;42.26;99532.00;1762271;81;21302;-81
2023/11/28 03:34:17;;;;;;;10.40;4.67;;;;;;;4.97;42.24;99533.27;1766956;81;21306;-81
2023/11/28 03:37:23;;;;;;;7.90;4.65;;;;;;;4.68;42.87;99544.41;1767595;80;21330;-82
2023/11/28 03:40:29;;;;;;;6.80;4.87;;;;;;;4.71;43.22;99539.20;1768171;81;21322;-81
2023/11/28 03:43:36;;;;;;;6.42;4.80;;;;;;;4.73;43.29;99541.23;1766779;80;21278;-80
2023/11/28 03:46:43;;;;;;;7.30;4.50;;;;;;;4.72;43.32;99546.31;1767984;80;21353;-81
2023/11/28 03:49:49;;;;;;;6.75;4.50;;;;;;;4.46;43.66;99547.60;1768143;81;21271;-80
2023/11/28 03:52:55;;;;;;;6.90;5.28;;;;;;;4.75;43.22;99548.20;1767039;80;21289;-79
2023/11/28 03:56:02;;;;;;;7.12;4.85;;;;;;;4.51;43.42;99556.11;1768207;81;21271;-79
2023/11/28 03:59:07;;;;;;;8.45;4.80;;;;;;;4.61;43.35;99561.81;1767570;81;21836;-79
2023/11/28 04:02:13;;;;;;;9.05;5.55;;;;;;;4.57;43.14;99561.77;1767644;80;21302;-81
2023/11/28 04:05:20;;;;;;;11.97;5.90;;;;;;;4.73;42.84;99564.27;1768041;81;21852;-80
2023/11/28 04:08:26;;;;;;;10.25;5.20;;;;;;;4.65;43.05;99569.60;1766826;80;21309;-80
2023/11/28 04:11:32;;;;;;;8.25;5.47;;;;;;;4.63;43.20;99568.41;1768227;80;21290;-80
2023/11/28 04:14:38;;;;;;;7.35;5.37;;;;;;;3.85;44.46;99582.50;1766725;81;21313;-80
2023/11/28 04:17:43;;;;;;;8.48;5.72;;;;;;;4.28;43.72;99585.03;1738293;81;21302;-82
2023/11/28 04:20:49;;;;;;;8.90;6.00;;;;;;;3.74;44.29;99588.13;1768117;81;21275;-81
2023/11/28 04:23:55;;;;;;;29.15;13.25;;;;;;;4.49;43.34;99587.92;1767537;81;21286;-80
2023/11/28 04:27:00;;;;;;;27.65;12.55;;;;;;;4.45;42.83;99587.38;1768096;80;21915;-80
2023/11/28 04:30:07;;;;;;;12.30;6.00;;;;;;;4.26;43.08;99590.23;1767413;81;21871;-80
2023/11/28 04:33:14;;;;;;;8.53;5.67;;;;;;;4.08;43.33;99588.34;1766294;80;21329;-80
2023/11/28 04:36:19;;;;;;;12.18;7.45;;;;;;;4.44;42.30;99592.45;1768293;80;21280;-79
2023/11/28 04:39:25;;;;;;;12.15;6.62;;;;;;;4.10;42.60;99590.92;1768198;81;21287;-80
2023/11/28 04:42:31;;;;;;;12.28;6.03;;;;;;;4.42;42.34;99599.01;1767619;80;21868;-80
2023/11/28 04:45:37;;;;;;;13.58;6.70;;;;;;;4.39;42.43;99608.81;1767138;81;21298;-79
2023/11/28 04:48:43;;;;;;;18.62;7.12;;;;;;;3.11;44.78;99617.68;1768110;81;21275;-80
2023/11/28 04:51:49;;;;;;;9.65;6.37;;;;;;;3.59;44.24;99612.61;1768013;80;21296;-81
2023/11/28 04:54:54;;;;;;;11.25;6.15;;;;;;;3.17;44.50;99615.73;1767076;81;21342;-82
2023/11/28 04:58:02;;;;;;;11.90;7.50;;;;;;;3.39;44.83;99619.07;1766962;80;21851;-79
2023/11/28 05:01:08;;;;;;;34.98;14.20;;;;;;;4.03;43.72;99622.28;1766928;81;21342;-80
2023/11/28 05:04:14;;;;;;;41.70;17.57;;;;;;;4.23;43.37;99623.86;1763865;81;22188;-81
2023/11/28 05:07:23;;;;;;;29.15;12.40;;;;;;;4.53;42.79;99621.82;1767698;80;21310;-80
2023/11/28 05:10:32;;;;;;;15.65;9.08;;;;;;;4.53;42.78;99631.30;1768335;81;21172;-80
2023/11/28 05:13:38;;;;;;;11.15;6.97;;;;;;;4.64;42.64;99635.63;1766905;80;21918;-81
2023/11/28 05:16:44;;;;;;;9.65;6.35;;;;;;;4.39;43.17;99639.95;1767993;80;21310;-79
2023/11/28 05:19:51;;;;;;;9.50;6.40;;;;;;;4.31;43.27;99646.12;1768052;81;21275;-79
2023/11/28 05:22:58;;;;;;;12.47;7.10;;;;;;;4.12;43.60;99649.80;1767049;80;21305;-79
2023/11/28 05:26:05;;;;;;;11.55;6.78;;;;;;;4.01;43.82;99644.60;1768036;81;22180;-80
2023/11/28 05:29:12;;;;;;;12.47;7.75;;;;;;;4.20;43.54;99649.91;1767935;81;21318;-81
2023/11/28 05:32:19;;;;;;;12.03;6.62;;;;;;;4.64;42.97;99647.31;1767306;80;21302;-80
2023/11/28 05:35:25;;;;;;;14.95;7.67;;;;;;;4.51;43.21;99656.31;1735841;82;21607;-82
2023/11/28 05:38:31;;;;;;;11.97;8.33;;;;;;;4.58;43.07;99650.64;1735176;82;21309;-81
2023/11/28 05:41:37;;;;;;;13.20;7.00;;;;;;;4.35;43.46;99645.66;1736452;82;21206;-79
2023/11/28 05:44:45;;;;;;;11.95;7.33;;;;;;;4.40;43.65;99649.27;1736470;82;21345;-81
2023/11/28 05:47:52;;;;;;;14.10;7.35;;;;;;;4.43;43.69;99649.48;1735764;82;21306;-81
2023/11/28 05:50:58;;;;;;;13.30;7.92;;;;;;;3.90;44.28;99654.25;1736962;82;21180;-82
2023/11/28 05:54:07;;;;;;;13.75;7.67;;;;;;;3.92;44.93;99655.81;1736588;82;21266;-80
2023/11/28 05:57:12;;;;;;;11.53;6.97;;;;;;;3.86;45.20;99656.42;1736084;82;21298;-81
2023/11/28 06:00:19;;;;;;;20.23;11.15;;;;;;;3.91;45.57;99650.56;1736628;82;21179;-80
2023/11/28 06:03:26;;;;;;;20.40;12.10;;;;;;;3.67;45.90;99661.41;1735358;82;21329;-82
2023/11/28 06:06:33;;;;;;;16.85;9.60;;;;;;;4.02;45.63;99670.66;1735502;82;21282;-82
2023/11/28 06:09:38;;;;;;;13.88;9.28;;;;;;;3.95;45.94;99665.00;1718910;83;21745;-80
2023/11/28 06:12:44;;;;;;;18.77;8.85;;;;;;;4.20;45.75;99676.97;1715444;82;21322;-81
2023/11/28 06:15:51;;;;;;;14.18;8.63;;;;;;;4.30;45.71;99669.64;1708726;82;21313;-81
2023/11/28 06:18:58;;;;;;;17.12;10.00;;;;;;;4.30;45.80;99675.56;1724469;82;21291;-81
2023/11/28 06:22:05;;;;;;;14.68;8.43;;;;;;;4.41;45.89;99681.26;1706214;82;21358;-79
2023/11/28 06:25:10;;;;;;;16.10;9.55;;;;;;;4.58;45.81;99677.73;1705764;82;21329;-80
2023/11/28 06:28:17;;;;;;;33.08;13.45;;;;;;;4.65;45.55;99684.22;1706750;81;21245;-79
2023/11/28 06:31:24;;;;;;;17.87;9.70;;;;;;;4.82;45.46;99685.25;1715145;82;21362;-79
2023/11/28 06:34:29;;;;;;;23.60;13.50;;;;;;;5.05;45.34;99680.22;1710230;83;21801;-80
2023/11/28 06:37:35;;;;;;;22.80;12.20;;;;;;;4.95;45.50;99680.80;1713006;81;21945;-81
2023/11/28 06:40:28;;;;;;;24.18;13.62;;;;;;;5.06;45.43;99688.69;1718837;83;21253;-80
2023/11/28 06:43:34;;;;;;;15.43;9.33;;;;;;;5.06;45.49;99687.33;1721460;81;21375;-81
2023/11/28 06:46:41;;;;;;;16.65;8.63;;;;;;;5.21;45.37;99697.95;1725566;81;21280;-80
2023/11/28 06:49:48;;;;;;;16.73;9.48;;;;;;;5.39;45.18;99693.36;1725968;81;21293;-80
2023/11/28 06:52:53;;;;;;;13.05;9.13;;;;;;;5.43;45.22;99698.48;1722493;81;21264;-80
2023/11/28 06:56:04;;;;;;;17.73;9.53;;;;;;;5.62;45.16;99695.56;1721696;81;21602;-81
2023/11/28 06:59:06;;;;;;;14.58;8.43;;;;;;;5.56;45.22;99697.56;1719272;81;21252;-82
2023/11/28 07:02:12;;;;;;;16.90;8.80;;;;;;;5.67;45.11;99701.87;1721655;81;21805;-80
2023/11/28 07:05:21;;;;;;;22.15;11.73;;;;;;;5.72;45.21;99712.58;1725231;81;21304;-81
2023/11/28 07:08:24;;;;;;;13.62;8.63;;;;;;;5.80;45.14;99704.50;1721031;81;21295;-82
2023/11/28 07:11:30;;;;;;;12.93;8.70;;;;;;;6.15;44.56;99705.39;1723658;81;21304;-82
2023/11/28 07:14:35;;;;;;;11.22;7.87;;;;;;;6.17;44.48;99706.60;1725324;81;21996;-81
2023/11/28 07:17:41;;;;;;;18.37;8.63;;;;;;;6.20;44.45;99710.33;1731284;81;21335;-82
2023/11/28 07:20:48;;;;;;;15.18;8.48;;;;;;;6.15;44.48;99710.30;1742282;81;21967;-81
2023/11/28 07:23:53;;;;;;;13.18;7.90;;;;;;;6.20;44.43;99710.33;1721252;81;21838;-80
2023/11/28 07:27:00;;;;;;;16.27;8.18;;;;;;;6.37;44.23;99712.95;1723193;81;22011;-81
2023/11/28 07:30:06;;;;;;;16.95;9.05;;;;;;;6.49;44.07;99708.57;1721118;81;21167;-81
2023/11/28 07:33:11;;;;;;;43.05;18.37;;;;;;;6.51;44.13;99710.63;1661374;84;21353;-81
2023/11/28 07:36:20;;;;;;;18.62;11.28;;;;;;;6.55;44.13;99718.80;1660850;83;21382;-81
2023/11/28 07:39:26;;;;;;;19.27;9.48;;;;;;;6.81;43.65;99719.53;1689656;83;21562;-81
2023/11/28 07:42:31;;;;;;;16.25;8.43;;;;;;;6.90;43.47;99714.45;1683346;83;21309;-81
2023/11/28 07:45:36;;;;;;;12.73;7.35;;;;;;;6.79;43.69;99716.14;1680604;83;21812;-81
2023/11/28 07:48:43;;;;;;;11.75;7.85;;;;;;;6.97;43.33;99709.22;1729020;81;21665;-81
2023/11/28 07:51:42;;;;;;;12.05;7.62;;;;;;;7.17;42.72;99713.31;1691545;83;21295;-81
2023/11/28 07:54:36;;;;;;;11.88;7.15;;;;;;;7.80;41.76;99714.97;1689243;83;21898;-81
2023/11/28 07:57:41;;;;;;;12.58;8.03;;;;;;;7.65;41.64;99714.83;1679268;83;21862;-82
2023/11/28 08:00:48;;;;;;;13.80;7.80;;;;;;;7.46;42.03;99724.70;1677111;85;21303;-81
2023/11/28 08:03:54;;;;;;;18.35;10.05;;;;;;;7.32;42.46;99727.59;1687091;83;21276;-81
2023/11/28 08:07:00;;;;;;;18.60;8.85;;;;;;;7.29;42.75;99727.45;1675852;83;21279;-81
2023/11/28 08:10:14;;;;;;;12.33;7.37;;;;;;;7.23;42.73;99724.53;1676371;83;21283;-80
2023/11/28 08:13:17;;;;;;;15.18;8.20;;;;;;;7.14;42.93;99727.75;1679195;85;21306;-80
2023/11/28 08:16:25;;;;;;;9.98;6.95;;;;;;;7.30;42.57;99735.09;1699153;82;21340;-81
2023/11/28 08:19:32;;;;;;;11.60;8.05;;;;;;;7.42;42.19;99734.56;1698742;83;21301;-82
2023/11/28 08:22:39;;;;;;;19.95;12.37;;;;;;;7.45;42.23;99722.50;1701045;82;21299;-81
2023/11/28 08:25:49;;;;;;;14.47;8.53;;;;;;;7.46;41.87;99717.91;1694256;83;21310;-82
2023/11/28 08:28:56;;;;;;;16.12;9.18;;;;;;;7.48;42.17;99718.57;1692945;83;21287;-82
2023/11/28 08:32:03;;;;;;;13.25;8.83;;;;;;;7.57;42.07;99728.44;1685476;83;21299;-80
2023/11/28 08:35:09;;;;;;;20.75;9.90;;;;;;;7.55;42.22;99727.26;1690595;83;21299;-81
2023/11/28 08:38:14;;;;;;;28.62;15.72;;;;;;;7.66;42.18;99725.53;1668446;84;22789;-82
2023/11/28 08:41:22;;;;;;;16.12;9.45;;;;;;;7.90;41.74;99726.03;1660024;86;21288;-80
2023/11/28 08:44:32;;;;;;;13.65;7.55;;;;;;;8.22;41.20;99726.95;1669366;84;21316;-81
2023/11/28 08:47:37;;;;;;;10.77;7.20;;;;;;;8.09;41.25;99722.08;1614140;87;21316;-81
2023/11/28 08:50:43;;;;;;;12.78;6.80;;;;;;;7.90;41.50;99720.59;1633713;86;21471;-81
2023/11/28 08:53:51;;;;;;;14.18;9.30;;;;;;;7.83;41.65;99723.65;1659662;86;21275;-81
2023/11/28 08:56:58;;;;;;;13.68;7.90;;;;;;;7.71;42.06;99715.48;1633047;86;23534;-81
2023/11/28 09:00:05;;;;;;;8.48;6.22;;;;;;;7.83;41.89;99710.55;1643127;86;21299;-82
2023/11/28 09:03:11;;;;;;;9.73;6.00;;;;;;;7.80;41.91;99699.48;1634971;86;21184;-82
2023/11/28 09:06:17;;;;;;;9.25;7.45;;;;;;;8.02;41.69;99695.70;1645057;86;21876;-81
2023/11/28 09:09:23;;;;;;;15.23;9.05;;;;;;;8.00;41.45;99689.56;1629883;86;21335;-82
2023/11/28 09:12:29;;;;;;;12.93;7.45;;;;;;;8.19;41.21;99695.99;1669175;84;21914;-80
2023/11/28 09:15:36;;;;;;;11.38;6.60;;;;;;;7.96;41.69;99690.96;1676770;83;21291;-84
2023/11/28 09:18:41;;;;;;;10.03;7.37;;;;;;;8.27;41.40;99701.39;1680410;84;21288;-81
2023/11/28 09:21:48;;;;;;;9.18;6.05;;;;;;;8.50;41.05;99706.09;1678576;83;21897;-82
2023/11/28 09:24:54;;;;;;;8.63;5.87;;;;;;;8.38;41.15;99708.38;1678287;84;21324;-82
2023/11/28 09:28:00;;;;;;;9.45;5.85;;;;;;;8.59;40.83;99703.16;1664089;84;21320;-82
2023/11/28 09:31:05;;;;;;;15.58;6.22;;;;;;;8.59;40.76;99700.42;1667473;84;21956;-82
2023/11/28 09:34:11;;;;;;;11.25;7.47;;;;;;;8.31;41.07;99698.65;1666351;84;21905;-82
2023/11/28 09:37:18;;;;;;;11.65;6.85;;;;;;;8.14;41.46;99700.61;1665909;84;21308;-82
2023/11/28 09:40:24;;;;;;;8.68;6.25;;;;;;;8.13;41.65;99711.14;1658290;84;21780;-81
2023/11/28 09:43:31;;;;;;;9.13;5.92;;;;;;;8.53;41.17;99707.12;1657663;84;21312;-82
2023/11/28 09:46:38;;;;;;;10.40;7.00;;;;;;;8.67;40.91;99706.36;1667947;83;21349;-82
2023/11/28 09:49:49;;;;;;;9.03;5.60;;;;;;;8.58;40.89;99699.25;1675802;84;21341;-82
2023/11/28 09:52:55;;;;;;;7.80;5.60;;;;;;;8.28;41.34;99697.66;1669314;84;21343;-83
2023/11/28 09:56:01;;;;;;;15.65;7.65;;;;;;;8.48;41.23;99692.66;1682161;84;21746;-82
2023/11/28 09:59:08;;;;;;;9.03;6.33;;;;;;;8.74;40.53;99682.79;1664125;84;21300;-83
2023/11/28 10:02:14;;;;;;;8.20;5.47;;;;;;;8.80;40.13;99682.09;1666426;84;21687;-82
2023/11/28 10:05:21;;;;;;;8.40;5.65;;;;;;;8.84;40.21;99682.03;1666391;84;21343;-82
2023/11/28 10:08:44;;;;;;;10.95;5.72;;;;;;;8.79;40.23;99681.73;1667601;84;21731;-83
2023/11/28 10:11:49;;;;;;;13.30;7.83;;;;;;;8.64;40.31;99684.38;1667388;84;21346;-82
2023/11/28 10:14:56;;;;;;;8.50;5.17;;;;;;;8.70;40.22;99679.59;1666784;84;21324;-82
2023/11/28 10:18:04;;;;;;;8.38;5.78;;;;;;;8.96;40.06;99677.88;1665140;84;21284;-82
2023/11/28 10:21:11;;;;;;;6.83;4.75;;;;;;;8.86;39.84;99680.00;1665122;84;21911;-83
2023/11/28 10:24:18;;;;;;;7.62;5.12;;;;;;;9.11;39.60;99672.48;1678300;84;21261;-82
2023/11/28 10:27:25;;;;;;;9.68;6.28;;;;;;;9.31;39.13;99679.64;1678070;84;21870;-82
2023/11/28 10:30:32;;;;;;;7.10;4.78;;;;;;;9.50;38.83;99673.34;1672758;84;21282;-83
2023/11/28 10:33:38;;;;;;;8.45;5.10;;;;;;;9.50;38.43;99678.28;1657659;86;21346;-83
2023/11/28 10:36:51;;;;;;;7.55;4.65;;;;;;;9.62;38.31;99673.23;1665170;84;21972;-83
2023/11/28 10:40:04;;;;;;;6.53;4.75;;;;;;;9.46;38.54;99673.73;1688283;84;21275;-83
2023/11/28 10:43:13;;;;;;;7.58;4.85;;;;;;;9.51;38.30;99668.23;1669827;84;21321;-83
2023/11/28 10:46:20;;;;;;;13.48;7.00;;;;;;;9.55;37.88;99669.05;1663238;82;21299;-82
2023/11/28 10:49:26;;;;;;;8.98;5.42;;;;;;;9.51;38.21;99672.33;1693672;83;21310;-83
2023/11/28 10:52:34;;;;;;;6.62;4.87;;;;;;;9.95;37.74;99660.93;1685255;83;21283;-83
2023/11/28 10:55:45;;;;;;;7.47;4.47;;;;;;;9.99;37.35;99664.98;1680053;84;21339;-82
2023/11/28 10:58:51;;;;;;;11.12;6.87;;;;;;;9.79;37.56;99667.95;1684811;83;21299;-82
2023/11/28 11:01:58;;;;;;;7.25;5.15;;;;;;;9.96;37.52;99669.97;1668406;84;21342;-82
2023/11/28 11:05:07;;;;;;;12.35;6.92;;;;;;;10.12;37.39;99658.02;1665502;84;21861;-82
2023/11/28 11:08:13;;;;;;;7.08;5.28;;;;;;;9.96;37.64;99658.52;1663739;84;21279;-83
2023/11/28 11:11:22;;;;;;;9.03;5.40;;;;;;;10.18;37.22;99655.89;1674037;83;21299;-83
2023/11/28 11:14:40;;;;;;;10.15;5.92;;;;;;;10.12;37.36;99651.19;1672268;84;21272;-82
2023/11/28 11:18:11;;;;;;;8.43;5.80;;;;;;;9.55;38.28;99655.40;1667436;84;21693;-82
2023/11/28 11:21:27;;;;;;;8.50;5.83;;;;;;;9.56;38.75;99658.97;1669143;84;21673;-83
2023/11/28 11:24:32;;;;;;;8.58;6.10;;;;;;;9.69;39.10;99660.03;1680985;84;21264;-84
2023/11/28 11:27:39;;;;;;;10.82;6.85;;;;;;;9.87;39.14;99656.91;1676888;83;21368;-82
2023/11/28 11:30:46;;;;;;;9.88;6.83;;;;;;;9.94;39.39;99659.23;1674981;84;21316;-84
2023/11/28 11:33:51;;;;;;;9.40;6.90;;;;;;;10.35;38.83;99660.65;1673533;84;21272;-83
2023/11/28 11:37:19;;;;;;;10.58;6.58;;;;;;;9.93;39.87;99661.65;1669398;84;21307;-83
2023/11/28 11:40:27;;;;;;;12.55;6.85;;;;;;;9.81;40.03;99658.20;1677154;83;21334;-85
2023/11/28 11:43:35;;;;;;;11.80;6.85;;;;;;;9.84;40.53;99660.05;1685474;83;21829;-83
2023/11/28 11:46:42;;;;;;;9.65;6.45;;;;;;;9.61;40.76;99659.27;1685614;83;21327;-83
2023/11/28 11:49:50;;;;;;;8.90;5.90;;;;;;;9.67;40.76;99648.42;1650514;83;21355;-82
2023/11/28 11:52:57;;;;;;;10.30;6.35;;;;;;;9.63;40.96;99659.39;1684394;83;21315;-82
2023/11/28 11:56:03;;;;;;;9.25;5.95;;;;;;;9.52;41.26;99664.47;1692577;83;21319;-82
2023/11/28 11:59:13;;;;;;;10.28;5.83;;;;;;;9.71;40.84;99662.56;1668478;84;22101;-81
2023/11/28 12:02:20;;;;;;;11.57;6.40;;;;;;;9.60;40.98;99658.94;1695749;82;21291;-82
2023/11/28 12:05:26;;;;;;;9.23;6.47;;;;;;;9.54;41.28;99659.66;1698198;83;21889;-81
2023/11/28 12:08:34;;;;;;;8.38;5.97;;;;;;;9.49;41.60;99664.30;1691598;83;21295;-82
2023/11/28 12:11:38;;;;;;;13.68;6.60;;;;;;;9.79;41.31;99669.31;1696548;83;21326;-81
2023/11/28 12:14:44;;;;;;;10.10;6.50;;;;;;;9.88;41.19;99672.30;1683096;83;21315;-82
2023/11/28 12:17:51;;;;;;;11.25;7.55;;;;;;;9.84;41.31;99669.60;1685534;83;21686;-82
2023/11/28 12:20:58;;;;;;;16.32;7.67;;;;;;;9.82;41.37;99670.28;1686562;83;21944;-82
2023/11/28 12:24:03;;;;;;;13.13;7.42;;;;;;;9.81;41.56;99674.06;1686608;83;21220;-83
2023/11/28 12:27:10;;;;;;;10.48;6.65;;;;;;;9.63;41.51;99681.75;1685230;83;21847;-82
2023/11/28 12:30:17;;;;;;;13.03;6.95;;;;;;;9.47;41.72;99679.52;1691565;83;21315;-82
2023/11/28 12:33:23;;;;;;;8.93;5.80;;;;;;;9.60;41.73;99672.59;1674073;83;21295;-82
2023/11/28 12:36:28;;;;;;;13.40;6.62;;;;;;;9.45;42.14;99678.83;1688062;82;21817;-82
2023/11/28 12:39:37;;;;;;;10.05;6.25;;;;;;;9.57;41.90;99667.48;1698144;83;21857;-81
2023/11/28 12:42:53;;;;;;;10.50;6.17;;;;;;;9.70;41.82;99669.91;1681040;84;21276;-82
2023/11/28 12:46:04;;;;;;;11.22;6.42;;;;;;;9.62;42.08;99662.31;1680089;84;21272;-82
2023/11/28 12:49:12;;;;;;;16.15;8.23;;;;;;;9.69;42.06;99665.98;1667923;84;21292;-81
2023/11/28 12:52:17;;;;;;;15.83;8.00;;;;;;;9.63;42.17;99657.18;1672838;83;21323;-83
2023/11/28 12:55:24;;;;;;;13.28;7.85;;;;;;;9.42;42.65;99654.66;1674858;84;21268;-82
2023/11/28 12:58:29;;;;;;;11.28;7.20;;;;;;;9.29;42.93;99647.61;1676360;84;21300;-83
2023/11/28 13:01:35;;;;;;;11.05;6.53;;;;;;;9.67;42.72;99647.06;1678895;84;21402;-81
2023/11/28 13:04:40;;;;;;;11.75;6.75;;;;;;;10.02;42.04;99642.41;1679705;83;21618;-82
2023/11/28 13:07:47;;;;;;;8.25;5.47;;;;;;;9.67;42.77;99633.93;1681279;83;21944;-82
2023/11/28 13:10:54;;;;;;;11.83;7.03;;;;;;;10.13;42.09;99625.03;1684017;84;21913;-83
2023/11/28 13:14:03;;;;;;;10.70;6.65;;;;;;;9.67;42.83;99629.31;1684302;83;21340;-83
2023/11/28 13:17:10;;;;;;;9.35;5.87;;;;;;;9.68;42.89;99629.64;1674265;84;21269;-82
2023/11/28 13:20:11;;;;;;;11.20;6.30;;;;;;;9.64;43.11;99626.95;1663559;84;21842;-82
2023/11/28 13:23:16;;;;;;;12.43;6.60;;;;;;;9.80;43.02;99631.41;1667441;83;21319;-81
2023/11/28 13:26:21;;;;;;;8.13;5.55;;;;;;;9.86;43.00;99632.53;1681470;84;21280;-81
2023/11/28 13:29:28;;;;;;;11.45;5.87;;;;;;;9.98;43.02;99643.33;1679523;84;21297;-82
2023/11/28 13:32:36;;;;;;;9.55;6.53;;;;;;;9.77;43.59;99639.96;1680988;84;21412;-83
2023/11/28 13:35:41;;;;;;;11.25;6.00;;;;;;;9.72;43.92;99647.34;1668805;86;21296;-82
2023/11/28 13:38:47;;;;;;;12.13;7.35;;;;;;;9.80;43.92;99639.59;1691970;83;22295;-81
2023/11/28 13:41:52;;;;;;;10.88;7.15;;;;;;;9.99;43.58;99638.19;1699947;83;21307;-82
2023/11/28 13:44:58;;;;;;;15.35;8.03;;;;;;;10.03;43.72;99633.20;1698260;83;21915;-83
2023/11/28 13:48:05;;;;;;;13.88;7.00;;;;;;;10.03;44.10;99629.10;1686451;83;21303;-82
2023/11/28 13:51:14;;;;;;;12.07;6.90;;;;;;;10.17;43.83;99630.97;1689344;83;21319;-81
2023/11/28 13:54:20;;;;;;;9.40;6.55;;;;;;;10.15;43.87;99624.83;1658121;85;21334;-82
2023/11/28 13:57:26;;;;;;;13.95;6.97;;;;;;;10.39;43.56;99622.33;1669592;84;21880;-84
2023/11/28 14:00:33;;;;;;;16.80;8.63;;;;;;;9.99;44.44;99628.10;1704655;84;21916;-83
2023/11/28 14:03:38;;;;;;;12.35;7.95;;;;;;;10.13;44.11;99626.92;1671432;82;21297;-82
2023/11/28 14:06:45;;;;;;;10.65;7.40;;;;;;;10.11;44.41;99624.36;1670595;85;21308;-83
2023/11/28 14:09:51;;;;;;;12.13;6.42;;;;;;;9.94;44.70;99623.73;1672167;84;21351;-83
2023/11/28 14:16:03;;;;;;;;;;;;;;;9.88;45.46;99614.05;1679014;84;21195;-83
2023/11/28 14:19:07;;;;;;;9.28;7.05;;;;;;;9.91;45.56;99614.53;1668622;84;20252;-83
2023/11/28 14:26:12;;;;;;;14.78;9.50;;;;;;;9.93;45.73;99611.11;1677280;84;21840;-83
2023/11/28 14:29:05;;;;;;;20.45;10.50;;;;;;;9.88;45.91;99602.64;1678629;85;21317;-83
2023/11/28 14:32:11;;;;;;;29.72;14.07;;;;;;;9.90;46.03;99604.65;1661990;86;21315;-83
2023/11/28 14:35:18;;;;;;;33.80;19.15;;;;;;;9.77;46.49;99593.53;1671932;84;21308;-81
2023/11/28 14:38:25;;;;;;;53.00;27.22;;;;;;;9.83;46.78;99595.50;1670841;84;21289;-82
2023/11/28 14:41:35;;;;;;;61.95;27.15;;;;;;;10.01;46.50;99591.54;1708089;83;21825;-83
2023/11/28 14:44:45;;;;;;;60.45;28.15;;;;;;;10.10;46.54;99589.03;1698705;83;21166;-82
2023/11/28 14:47:55;;;;;;;65.22;31.93;;;;;;;10.23;46.18;99592.78;1739056;80;21905;-83
2023/11/28 14:51:03;;;;;;;98.92;41.45;;;;;;;10.23;46.29;99571.44;1709058;82;21153;-83